Time;durP1;ratioP1;P1;durP2;ratioP2;P2;SDS_P1;SDS_P2;PMS_P1;PMS_P2;Temp;Humidity;BMP_temperature;BMP_pressure;BME280_temperature;BME280_humidity;BME280_pressure;Samples;Min_cycle;Max_cycle;Signal;HPM_P1;HPM_P2
2022/01/02 00:01:12;;;;;;;12.33;10.10;;;;;;;10.21;61.75;98572.63;8450338;28;20233;-72
2022/01/02 00:05:15;;;;;;;12.57;10.27;;;;;;;9.92;62.54;98570.09;8451182;28;20257;-72
2022/01/02 00:09:31;;;;;;;13.30;10.80;;;;;;;9.72;63.17;98568.13;8451635;28;20230;-72
2022/01/02 00:13:36;;;;;;;14.40;10.37;;;;;;;9.42;65.29;98562.16;8451044;28;20226;-71
2022/01/02 00:17:40;;;;;;;16.37;10.10;;;;;;;9.82;63.77;98568.69;8451429;28;20350;-72
2022/01/02 00:21:46;;;;;;;12.90;10.23;;;;;;;10.08;62.17;98573.03;8449828;28;20238;-72
2022/01/02 00:25:53;;;;;;;14.63;10.73;;;;;;;10.23;61.58;98565.66;8450743;28;20234;-72
2022/01/02 00:29:57;;;;;;;19.20;13.20;;;;;;;10.26;60.91;98565.53;8450315;28;20241;-71
2022/01/02 00:34:01;;;;;;;18.87;13.17;;;;;;;10.23;60.75;98558.72;8450049;28;20540;-72
2022/01/02 00:38:05;;;;;;;14.80;10.37;;;;;;;10.24;61.19;98557.81;8449910;28;20237;-71
2022/01/02 00:42:11;;;;;;;13.60;10.37;;;;;;;10.19;60.71;98539.03;8482990;28;20237;-72
2022/01/02 00:46:15;;;;;;;14.27;9.80;;;;;;;10.29;60.96;98545.56;8483323;28;20296;-73
2022/01/02 00:50:22;;;;;;;14.20;10.97;;;;;;;9.93;62.82;98542.47;8483284;28;20296;-72
2022/01/02 00:54:27;;;;;;;14.03;10.90;;;;;;;9.81;63.47;98550.66;8483380;28;20540;-71
2022/01/02 00:58:36;;;;;;;13.50;10.50;;;;;;;10.18;61.64;98533.03;8483334;28;20225;-71
2022/01/02 01:02:42;;;;;;;14.07;10.10;;;;;;;9.96;62.14;98524.28;8483288;28;20233;-72
2022/01/02 01:06:48;;;;;;;13.03;10.50;;;;;;;10.07;62.22;98539.44;8482408;28;20290;-71
2022/01/02 01:10:52;;;;;;;11.83;9.90;;;;;;;10.32;61.44;98534.31;8482663;28;20533;-72
2022/01/02 01:14:56;;;;;;;12.33;10.17;;;;;;;10.30;61.29;98536.06;8482667;28;20327;-72
2022/01/02 01:19:02;;;;;;;11.40;10.10;;;;;;;10.29;61.35;98522.28;8482351;28;20240;-72
2022/01/02 01:23:05;;;;;;;11.43;9.50;;;;;;;10.20;61.14;98507.06;8482499;28;20476;-72
2022/01/02 01:27:09;;;;;;;10.73;9.40;;;;;;;9.96;62.28;98514.75;8447540;28;20233;-72
2022/01/02 01:31:13;;;;;;;11.53;9.30;;;;;;;9.81;62.49;98504.09;8448327;28;20319;-72
2022/01/02 01:35:17;;;;;;;13.53;10.43;;;;;;;9.83;62.40;98499.69;8448698;28;20237;-72
2022/01/02 01:39:20;;;;;;;10.00;8.87;;;;;;;10.12;61.31;98491.78;8447900;28;20230;-72
2022/01/02 01:43:36;;;;;;;11.33;9.13;;;;;;;10.10;61.40;98497.94;8448886;28;20230;-71
2022/01/02 01:47:40;;;;;;;11.20;8.80;;;;;;;9.79;62.41;98491.19;8449866;28;20230;-72
2022/01/02 01:51:45;;;;;;;10.63;8.97;;;;;;;10.18;60.99;98490.75;8449711;28;20247;-72
2022/01/02 01:55:48;;;;;;;11.97;9.47;;;;;;;9.79;61.71;98479.09;8447664;28;20234;-71
2022/01/02 01:59:51;;;;;;;10.47;9.37;;;;;;;10.04;61.70;98483.44;8447487;28;20229;-71
2022/01/02 02:03:57;;;;;;;10.90;9.03;;;;;;;9.97;61.16;98482.81;8447521;28;20234;-71
2022/01/02 02:08:00;;;;;;;10.53;8.73;;;;;;;10.06;60.92;98483.41;8447010;28;20230;-72
2022/01/02 02:12:03;;;;;;;13.50;9.53;;;;;;;9.82;62.16;98472.97;8446815;28;20346;-71
2022/01/02 02:16:06;;;;;;;11.17;9.50;;;;;;;10.00;61.10;98468.94;8446994;28;20241;-72
2022/01/02 02:20:15;;;;;;;11.37;9.00;;;;;;;9.75;61.36;98461.16;8445837;28;20240;-72
2022/01/02 02:24:18;;;;;;;11.93;9.27;;;;;;;9.83;61.64;98469.50;8446648;28;20241;-72
2022/01/02 02:28:26;;;;;;;10.23;8.87;;;;;;;9.89;61.41;98463.28;8445615;28;20253;-72
2022/01/02 02:32:28;;;;;;;10.50;8.90;;;;;;;9.38;63.49;98454.56;8446673;28;20229;-72
2022/01/02 02:36:33;;;;;;;12.57;9.47;;;;;;;9.23;63.59;98453.31;8446583;28;20408;-71
2022/01/02 02:40:37;;;;;;;12.00;9.73;;;;;;;9.04;63.90;98434.09;8445631;28;20238;-72
2022/01/02 02:44:40;;;;;;;10.20;9.20;;;;;;;9.15;63.59;98434.63;8445545;28;20240;-72
2022/01/02 02:49:02;;;;;;;11.27;8.57;;;;;;;9.24;63.19;98420.59;8446030;28;20551;-72
2022/01/02 02:53:07;;;;;;;9.73;8.70;;;;;;;9.42;62.57;98419.97;8446130;28;20257;-72
2022/01/02 02:57:13;;;;;;;9.93;8.93;;;;;;;9.71;61.49;98423.34;8478956;28;20225;-72
2022/01/02 03:01:22;;;;;;;9.23;8.17;;;;;;;9.83;60.91;98433.28;8479348;28;20544;-72
2022/01/02 03:05:25;;;;;;;12.10;9.70;;;;;;;9.32;62.71;98426.34;8479015;28;20405;-72
2022/01/02 03:13:51;;;;;;;10.73;9.00;;;;;;;9.45;61.68;98422.47;8479041;28;20586;-71
2022/01/02 03:17:54;;;;;;;11.23;8.93;;;;;;;9.25;62.31;98419.66;8479182;28;20641;-71
2022/01/02 03:21:56;;;;;;;11.40;8.80;;;;;;;9.65;61.32;98415.78;8478433;28;20236;-71
2022/01/02 03:26:01;;;;;;;12.57;9.30;;;;;;;9.42;61.35;98404.47;8479523;28;20237;-72
2022/01/02 03:30:05;;;;;;;10.20;8.33;;;;;;;9.66;60.78;98407.16;8479376;28;20233;-71
2022/01/02 03:34:08;;;;;;;10.83;8.73;;;;;;;9.48;61.38;98403.41;8444952;28;20267;-72
2022/01/02 03:38:11;;;;;;;14.40;8.30;;;;;;;9.78;60.80;98404.13;8444372;28;20238;-71
2022/01/02 03:42:16;;;;;;;11.20;8.93;;;;;;;9.27;61.29;98408.41;8443802;28;20231;-72
2022/01/02 03:46:19;;;;;;;9.53;8.33;;;;;;;9.47;61.06;98399.16;8443587;28;20241;-72
2022/01/02 03:50:22;;;;;;;10.63;8.77;;;;;;;9.12;61.49;98376.16;8443642;28;20283;-72
2022/01/02 03:54:25;;;;;;;10.07;8.53;;;;;;;9.04;62.56;98378.09;8446979;28;20230;-71
2022/01/02 03:58:30;;;;;;;11.60;8.60;;;;;;;9.01;63.17;98370.47;8450515;28;20230;-71
2022/01/02 04:02:34;;;;;;;10.67;8.73;;;;;;;9.12;62.26;98370.09;8450032;28;20226;-71
2022/01/02 04:06:37;;;;;;;10.97;8.60;;;;;;;9.06;62.72;98375.47;8450041;28;20238;-72
2022/01/02 04:10:40;;;;;;;10.97;9.17;;;;;;;8.72;63.78;98364.47;8449919;28;20411;-71
2022/01/02 04:14:44;;;;;;;10.33;8.90;;;;;;;9.16;62.27;98361.38;8449889;28;20248;-71
2022/01/02 04:18:48;;;;;;;12.43;9.07;;;;;;;8.86;63.15;98370.94;8450047;28;20238;-71
2022/01/02 04:22:50;;;;;;;11.97;9.10;;;;;;;8.80;63.22;98361.66;8450467;28;20237;-71
2022/01/02 04:26:53;;;;;;;12.70;8.57;;;;;;;9.10;62.54;98365.00;8450152;28;20233;-71
2022/01/02 04:30:58;;;;;;;11.63;8.40;;;;;;;9.08;62.25;98351.31;8450176;28;20238;-71
2022/01/02 04:35:01;;;;;;;9.07;7.87;;;;;;;9.03;61.73;98352.34;8449817;28;20246;-71
2022/01/02 04:39:04;;;;;;;9.27;7.80;;;;;;;9.14;61.70;98355.44;8450037;28;20245;-71
2022/01/02 04:43:07;;;;;;;8.87;7.77;;;;;;;9.31;60.59;98363.47;8457703;28;20238;-71
2022/01/02 04:47:11;;;;;;;10.77;9.07;;;;;;;8.82;62.39;98352.13;8449299;28;20234;-71
2022/01/02 04:51:14;;;;;;;9.57;8.47;;;;;;;9.20;61.37;98353.47;8449625;28;20252;-71
2022/01/02 04:55:17;;;;;;;9.33;8.23;;;;;;;9.16;60.72;98351.88;8450480;28;20237;-71
2022/01/02 04:59:20;;;;;;;11.67;9.20;;;;;;;8.91;61.59;98344.09;8450497;28;20234;-71
2022/01/02 05:03:25;;;;;;;12.17;9.00;;;;;;;8.69;62.51;98341.31;8450498;28;20237;-71
2022/01/02 05:07:28;;;;;;;9.27;8.27;;;;;;;8.92;61.63;98340.59;8449458;28;20230;-71
2022/01/02 05:11:30;;;;;;;12.47;8.90;;;;;;;8.51;63.69;98335.00;8449754;28;20237;-71
2022/01/02 05:15:33;;;;;;;11.57;9.10;;;;;;;8.97;61.83;98328.38;8449495;28;20241;-71
2022/01/02 05:19:38;;;;;;;10.37;9.20;;;;;;;8.43;64.16;98333.50;8449702;28;20244;-71
2022/01/02 05:23:45;;;;;;;11.47;9.77;;;;;;;8.20;64.79;98319.50;8449421;28;20230;-71
2022/01/02 05:27:48;;;;;;;10.13;8.83;;;;;;;8.34;64.09;98312.22;8449515;28;20234;-71
2022/01/02 05:31:51;;;;;;;9.60;8.60;;;;;;;8.08;65.78;98315.56;8449448;28;20238;-71
2022/01/02 05:35:56;;;;;;;11.87;10.30;;;;;;;7.81;66.41;98314.63;8449479;28;20237;-71
2022/01/02 05:39:59;;;;;;;12.93;10.53;;;;;;;7.93;65.78;98306.53;8449242;28;20234;-71
2022/01/02 05:44:01;;;;;;;10.43;9.30;;;;;;;7.77;67.40;98313.00;8448936;28;20229;-71
2022/01/02 05:48:05;;;;;;;14.27;9.93;;;;;;;8.11;65.45;98299.13;8448936;28;20234;-71
2022/01/02 05:52:10;;;;;;;11.97;9.70;;;;;;;8.11;65.09;98292.28;8448340;28;20226;-71
2022/01/02 05:56:13;;;;;;;12.53;10.00;;;;;;;7.49;66.53;98282.81;8448681;28;20230;-71
2022/01/02 06:00:16;;;;;;;12.87;10.57;;;;;;;8.03;65.79;98279.59;8448586;28;20237;-71
2022/01/02 06:04:18;;;;;;;10.20;9.10;;;;;;;8.33;64.56;98274.41;8448144;28;20234;-71
2022/01/02 06:08:23;;;;;;;20.07;10.73;;;;;;;7.90;65.56;98269.66;8448328;28;20244;-71
2022/01/02 06:12:26;;;;;;;11.07;9.60;;;;;;;8.06;65.74;98273.50;8448366;28;20237;-71
2022/01/02 06:16:31;;;;;;;10.73;9.60;;;;;;;8.27;65.01;98273.75;8448064;28;20529;-71
2022/01/02 06:20:34;;;;;;;11.83;9.70;;;;;;;8.11;65.24;98263.03;8447563;28;20230;-71
2022/01/02 06:24:39;;;;;;;10.70;9.40;;;;;;;8.28;65.04;98262.53;8448249;28;20241;-71
2022/01/02 06:28:41;;;;;;;13.43;10.43;;;;;;;8.18;65.09;98252.47;8447852;28;20240;-71
2022/01/02 06:32:44;;;;;;;11.77;10.00;;;;;;;8.22;65.00;98245.50;8448083;28;20533;-71
2022/01/02 06:36:47;;;;;;;12.17;10.50;;;;;;;7.84;66.63;98237.16;8448234;28;20254;-72
2022/01/02 06:40:51;;;;;;;11.13;9.93;;;;;;;8.25;64.84;98250.56;8447948;28;20226;-73
2022/01/02 06:44:54;;;;;;;11.23;9.50;;;;;;;8.46;64.27;98256.84;8448105;28;20237;-73
2022/01/02 06:48:57;;;;;;;11.83;9.60;;;;;;;8.40;64.65;98255.25;8447237;28;20418;-73
2022/01/02 06:53:20;;;;;;;11.70;10.20;;;;;;;8.73;63.37;98244.78;8480290;28;20228;-73
2022/01/02 06:57:24;;;;;;;11.33;9.67;;;;;;;8.82;63.06;98237.66;8480720;28;20233;-74
2022/01/02 07:01:27;;;;;;;12.43;9.87;;;;;;;8.80;63.63;98233.38;8480860;28;20245;-73
2022/01/02 07:05:30;;;;;;;14.67;10.40;;;;;;;8.96;62.79;98212.19;8480579;28;20516;-73
2022/01/02 07:09:34;;;;;;;12.70;11.07;;;;;;;8.65;63.49;98223.53;8480715;28;20570;-74
2022/01/02 07:13:38;;;;;;;12.10;10.13;;;;;;;9.07;62.00;98235.09;8480529;28;20229;-74
2022/01/02 07:17:41;;;;;;;12.70;10.30;;;;;;;9.14;61.67;98229.66;8480600;28;20232;-74
2022/01/02 07:21:44;;;;;;;13.30;10.10;;;;;;;9.23;61.42;98232.81;8480303;28;20240;-71
2022/01/02 07:25:47;;;;;;;12.97;9.83;;;;;;;8.79;62.65;98233.41;8480521;28;20236;-71
2022/01/02 07:29:55;;;;;;;13.43;9.87;;;;;;;8.94;62.65;98229.47;8482952;28;20536;-71
2022/01/02 07:33:57;;;;;;;12.70;10.03;;;;;;;9.17;61.75;98216.63;8487030;28;20233;-71
2022/01/02 07:38:00;;;;;;;14.07;10.40;;;;;;;9.26;60.93;98230.13;8486902;28;20571;-71
2022/01/02 07:42:03;;;;;;;11.50;10.30;;;;;;;9.43;60.87;98238.13;8486684;28;20532;-71
2022/01/02 07:46:11;;;;;;;11.53;9.57;;;;;;;9.34;60.60;98238.44;8452637;28;20226;-71
2022/01/02 07:50:14;;;;;;;12.93;10.50;;;;;;;9.25;60.72;98249.09;8452798;28;20516;-71
2022/01/02 07:54:17;;;;;;;12.87;10.97;;;;;;;9.42;60.28;98248.53;8452264;28;20229;-71
2022/01/02 07:58:20;;;;;;;12.47;11.07;;;;;;;9.06;61.52;98223.88;8452512;28;20242;-71
2022/01/02 08:02:24;;;;;;;13.50;11.07;;;;;;;8.97;61.21;98212.16;8452766;28;20241;-71
2022/01/02 08:06:27;;;;;;;13.33;10.90;;;;;;;9.27;61.53;98226.63;8451779;28;20253;-71
2022/01/02 08:10:30;;;;;;;16.63;13.53;;;;;;;9.11;60.93;98216.00;8451856;28;20234;-71
2022/01/02 08:14:33;;;;;;;12.50;10.93;;;;;;;9.26;61.29;98222.38;8451716;28;20237;-71
2022/01/02 08:18:38;;;;;;;12.80;10.90;;;;;;;9.00;61.51;98216.34;8451824;28;20241;-71
2022/01/02 08:22:41;;;;;;;14.73;12.90;;;;;;;9.05;61.66;98222.22;8451036;28;20240;-71
2022/01/02 08:26:45;;;;;;;13.63;12.00;;;;;;;8.89;62.70;98223.63;8451062;28;20548;-71
2022/01/02 08:30:48;;;;;;;14.00;11.37;;;;;;;9.20;61.16;98206.19;8451092;28;20234;-71
2022/01/02 08:34:53;;;;;;;14.30;11.23;;;;;;;8.74;62.59;98212.09;8451144;28;20420;-71
2022/01/02 08:38:55;;;;;;;12.30;10.87;;;;;;;8.69;64.06;98206.22;8451060;28;20245;-71
2022/01/02 08:42:59;;;;;;;15.43;12.57;;;;;;;8.65;63.55;98220.13;8449916;28;20230;-71
2022/01/02 08:47:01;;;;;;;15.13;12.23;;;;;;;8.87;63.12;98215.94;8450924;28;20245;-71
2022/01/02 08:51:07;;;;;;;14.47;12.17;;;;;;;8.82;63.22;98211.81;8450694;28;20236;-71
2022/01/02 08:55:09;;;;;;;13.93;12.00;;;;;;;9.34;61.57;98216.03;8450037;28;20270;-71
2022/01/02 08:59:12;;;;;;;14.93;12.70;;;;;;;9.13;61.80;98209.88;8450365;28;20537;-71
2022/01/02 09:03:16;;;;;;;16.40;12.93;;;;;;;9.22;62.03;98208.72;8449958;28;20244;-71
2022/01/02 09:07:20;;;;;;;13.43;12.00;;;;;;;9.48;61.90;98191.41;8455836;28;20225;-71
2022/01/02 09:11:23;;;;;;;13.83;12.33;;;;;;;9.35;61.05;98191.03;8449900;28;20245;-71
2022/01/02 09:15:26;;;;;;;14.90;12.17;;;;;;;9.33;62.55;98200.59;8449723;28;20237;-71
2022/01/02 09:19:29;;;;;;;14.43;12.90;;;;;;;9.17;62.65;98187.34;8449522;28;20256;-71
2022/01/02 09:23:34;;;;;;;14.53;12.37;;;;;;;9.37;62.00;98184.91;8449710;28;20297;-71
2022/01/02 09:27:39;;;;;;;15.40;11.60;;;;;;;9.50;61.73;98194.78;8449157;28;20241;-71
2022/01/02 09:31:41;;;;;;;13.37;11.40;;;;;;;10.05;60.33;98205.69;8449305;28;20237;-71
2022/01/02 09:35:45;;;;;;;12.50;11.20;;;;;;;10.04;60.48;98195.41;8449459;28;20237;-71
2022/01/02 09:39:50;;;;;;;12.93;11.63;;;;;;;9.70;61.93;98176.81;8449253;28;20274;-71
2022/01/02 09:43:53;;;;;;;13.93;11.00;;;;;;;9.92;61.43;98188.97;8449175;28;20536;-71
2022/01/02 09:47:56;;;;;;;12.90;11.53;;;;;;;9.88;61.51;98189.94;8448905;28;20230;-71
2022/01/02 09:51:59;;;;;;;14.83;11.67;;;;;;;10.31;60.49;98183.97;8448573;28;20230;-71
2022/01/02 09:56:05;;;;;;;12.80;11.47;;;;;;;10.12;61.46;98180.41;8448573;28;20226;-71
2022/01/02 10:00:09;;;;;;;14.00;11.47;;;;;;;10.27;60.43;98174.63;8481814;28;20244;-72
2022/01/02 10:04:12;;;;;;;12.90;11.57;;;;;;;9.73;62.67;98162.94;8481801;28;20233;-72
2022/01/02 10:08:20;;;;;;;14.20;12.40;;;;;;;9.73;63.05;98168.94;8481486;28;20241;-71
2022/01/02 10:12:27;;;;;;;12.53;11.23;;;;;;;10.36;61.32;98173.47;8481919;28;20226;-72
2022/01/02 10:16:32;;;;;;;14.27;12.23;;;;;;;9.96;62.54;98159.47;8481410;28;20226;-72
2022/01/02 10:20:37;;;;;;;13.73;12.20;;;;;;;10.11;62.75;98166.63;8481832;28;20233;-71
2022/01/02 10:24:47;;;;;;;13.17;11.07;;;;;;;10.52;60.96;98158.13;8481690;28;20417;-72
2022/01/02 10:28:51;;;;;;;13.87;12.20;;;;;;;10.47;60.90;98147.97;8481326;28;20312;-72
2022/01/02 10:32:57;;;;;;;18.33;13.93;;;;;;;10.00;62.79;98144.69;8481479;28;20421;-72
2022/01/02 10:37:00;;;;;;;16.23;13.63;;;;;;;10.19;62.22;98135.28;8481410;28;20241;-72
2022/01/02 10:41:03;;;;;;;15.03;13.53;;;;;;;10.26;62.39;98128.94;8481328;28;20431;-72
2022/01/02 10:45:08;;;;;;;14.03;12.20;;;;;;;10.20;62.90;98143.88;8480926;28;20230;-72
2022/01/02 10:49:11;;;;;;;14.70;12.63;;;;;;;10.50;62.08;98139.22;8446833;28;20240;-72
2022/01/02 10:53:16;;;;;;;13.57;12.13;;;;;;;11.07;61.00;98145.44;8447553;28;20230;-72
2022/01/02 10:57:19;;;;;;;13.53;11.30;;;;;;;10.71;61.92;98137.50;8447731;28;20533;-72
2022/01/02 11:01:24;;;;;;;13.37;11.33;;;;;;;10.90;61.71;98128.03;8447562;28;20241;-72
2022/01/02 11:05:29;;;;;;;12.23;10.87;;;;;;;11.14;60.80;98127.88;8451399;28;20260;-73
2022/01/02 11:09:32;;;;;;;15.70;11.13;;;;;;;11.13;61.11;98123.59;8454346;28;20241;-72
2022/01/02 11:13:36;;;;;;;12.27;10.97;;;;;;;11.14;61.52;98104.56;8454095;28;20289;-72
2022/01/02 11:17:40;;;;;;;12.90;11.60;;;;;;;10.52;63.71;98101.16;8453865;28;20256;-72
2022/01/02 11:21:44;;;;;;;12.77;11.40;;;;;;;11.10;61.98;98088.28;8453705;28;20230;-72
2022/01/02 11:25:51;;;;;;;13.40;12.00;;;;;;;10.87;63.05;98083.28;8453631;28;20230;-72
2022/01/02 11:29:54;;;;;;;13.13;11.73;;;;;;;11.03;62.20;98091.22;8453539;28;20428;-72
2022/01/02 11:33:58;;;;;;;14.00;11.70;;;;;;;11.23;61.14;98080.81;8453227;28;20230;-72
2022/01/02 11:38:02;;;;;;;12.63;11.13;;;;;;;11.20;61.72;98090.47;8453060;28;20234;-72
2022/01/02 11:42:06;;;;;;;13.67;11.57;;;;;;;11.08;62.25;98077.16;8452877;28;20234;-72
2022/01/02 11:46:15;;;;;;;13.50;10.83;;;;;;;11.04;62.42;98057.47;8452247;28;20226;-72
2022/01/02 11:50:47;;;;;;;13.13;11.80;;;;;;;10.91;63.05;98036.44;8452387;28;20242;-72
2022/01/02 11:54:58;;;;;;;13.10;11.30;;;;;;;10.95;63.09;98026.78;8452525;28;20429;-72
2022/01/02 11:59:01;;;;;;;12.73;11.03;;;;;;;10.92;62.99;98024.31;8452440;28;20242;-72
2022/01/02 12:03:04;;;;;;;14.10;12.00;;;;;;;10.71;64.21;97995.88;8452463;28;20284;-72
2022/01/02 12:07:50;;;;;;;12.20;10.90;;;;;;;10.73;64.15;97986.28;8451865;28;20234;-73
2022/01/02 12:12:00;;;;;;;18.87;14.57;;;;;;;10.64;65.16;97984.13;8452053;28;20233;-72
2022/01/02 12:16:10;;;;;;;14.83;12.33;;;;;;;11.00;63.37;98018.78;8450572;28;20230;-72
2022/01/02 12:20:14;;;;;;;14.33;12.70;;;;;;;10.69;64.60;98013.22;8451624;28;20301;-73
2022/01/02 12:24:30;;;;;;;16.87;12.70;;;;;;;10.71;64.46;98011.41;8451498;28;20230;-72
2022/01/02 12:28:38;;;;;;;16.50;12.50;;;;;;;10.80;64.24;98004.16;8451233;28;20238;-72
2022/01/02 12:32:41;;;;;;;15.10;13.30;;;;;;;10.94;64.22;98018.16;8451717;28;20236;-72
2022/01/02 12:36:46;;;;;;;15.50;12.77;;;;;;;10.82;63.98;97991.97;8451714;28;20237;-72
2022/01/02 12:40:53;;;;;;;16.47;13.23;;;;;;;10.75;63.97;97976.69;8450852;28;20233;-72
2022/01/02 12:44:56;;;;;;;16.67;13.87;;;;;;;10.79;63.68;97974.81;8451296;28;20241;-72
2022/01/02 12:49:04;;;;;;;14.70;13.00;;;;;;;10.82;63.13;97968.66;8450848;28;20238;-72
2022/01/02 12:53:07;;;;;;;16.23;12.33;;;;;;;10.90;63.30;97966.56;8450408;28;20421;-73
2022/01/02 12:57:14;;;;;;;15.33;13.37;;;;;;;10.75;63.78;97955.13;8450259;28;20234;-72
2022/01/02 13:01:20;;;;;;;15.27;13.50;;;;;;;10.62;63.95;97936.72;8450120;28;20348;-72
2022/01/02 13:05:23;;;;;;;14.50;12.90;;;;;;;10.70;64.03;97944.13;8450035;28;20238;-72
2022/01/02 13:09:28;;;;;;;15.87;13.50;;;;;;;10.60;64.02;97945.47;8450174;28;20237;-72
2022/01/02 13:13:33;;;;;;;14.77;13.27;;;;;;;10.71;63.65;97941.47;8450235;28;20421;-72
2022/01/02 13:17:38;;;;;;;14.30;12.77;;;;;;;10.80;63.63;97950.59;8450124;28;20230;-72
2022/01/02 13:21:42;;;;;;;15.10;13.50;;;;;;;10.91;63.24;97945.75;8449856;28;20240;-72
2022/01/02 13:25:47;;;;;;;15.87;13.40;;;;;;;10.76;63.44;97934.34;8449515;28;20230;-72
2022/01/02 13:30:00;;;;;;;15.70;13.43;;;;;;;11.19;62.66;97944.47;8448632;28;20243;-72
2022/01/02 13:34:03;;;;;;;17.10;13.30;;;;;;;10.77;63.95;97927.41;8449214;28;20426;-72
2022/01/02 13:38:07;;;;;;;16.07;13.97;;;;;;;10.70;64.10;97926.88;8448998;28;20230;-72
2022/01/02 13:42:11;;;;;;;16.53;14.50;;;;;;;10.68;64.05;97914.88;8448273;28;20230;-72
2022/01/02 13:46:15;;;;;;;15.50;13.90;;;;;;;10.80;64.32;97910.91;8448932;28;20229;-72
2022/01/02 13:50:37;;;;;;;15.70;13.63;;;;;;;10.86;63.73;97911.44;8448772;28;20241;-72
2022/01/02 13:54:40;;;;;;;17.30;15.43;;;;;;;10.56;64.74;97898.16;8448722;28;20421;-72
2022/01/02 13:58:45;;;;;;;17.60;15.63;;;;;;;10.67;64.51;97893.31;8448598;28;20253;-72
2022/01/02 14:02:52;;;;;;;19.23;17.23;;;;;;;10.74;64.79;97879.19;8448427;28;20234;-72
2022/01/02 14:06:55;;;;;;;19.33;17.10;;;;;;;10.79;63.94;97870.34;8448086;28;20244;-72
2022/01/02 14:11:06;;;;;;;17.40;13.43;;;;;;;10.75;63.96;97873.06;8448820;28;20417;-72
2022/01/02 14:15:18;;;;;;;17.73;12.90;;;;;;;10.88;63.39;97856.97;8481713;28;20232;-72
2022/01/02 14:19:23;;;;;;;15.67;13.03;;;;;;;10.81;63.23;97863.34;8481650;28;20229;-72
2022/01/02 14:23:26;;;;;;;14.40;12.90;;;;;;;10.73;63.82;97861.13;8481674;28;20424;-72
2022/01/02 14:27:31;;;;;;;14.47;12.73;;;;;;;10.55;64.28;97857.66;8482061;28;20389;-72
2022/01/02 14:31:34;;;;;;;14.03;12.43;;;;;;;10.64;64.41;97839.09;8481219;28;20237;-72
2022/01/02 14:35:40;;;;;;;16.87;13.30;;;;;;;10.54;64.68;97840.41;8481617;28;20292;-72
2022/01/02 14:39:44;;;;;;;13.83;12.43;;;;;;;10.66;63.57;97831.22;8480190;28;20564;-72
2022/01/02 14:43:47;;;;;;;14.47;12.97;;;;;;;10.85;63.55;97823.44;8480881;28;20236;-72
2022/01/02 14:47:51;;;;;;;13.57;12.17;;;;;;;10.73;63.88;97838.63;8480778;28;20240;-72
2022/01/02 14:51:55;;;;;;;15.17;12.57;;;;;;;11.37;61.87;97856.38;8480850;28;20244;-72
2022/01/02 14:55:58;;;;;;;17.17;13.90;;;;;;;11.57;61.59;97871.75;8480865;28;20221;-72
2022/01/02 15:00:01;;;;;;;7.23;6.30;;;;;;;12.58;73.20;97883.88;8480499;28;20241;-70
2022/01/02 15:04:05;;;;;;;16.27;13.43;;;;;;;12.57;60.55;97881.38;8480495;28;20234;-76
2022/01/02 15:08:10;;;;;;;21.37;15.07;;;;;;;12.12;60.04;97878.53;8454791;28;20226;-76
2022/01/02 15:12:13;;;;;;;15.33;13.70;;;;;;;12.00;60.19;97880.00;8447145;28;20238;-76
2022/01/02 15:16:16;;;;;;;19.00;16.23;;;;;;;11.73;60.11;97890.00;8447208;28;20230;-76
2022/01/02 15:20:20;;;;;;;25.03;19.47;;;;;;;11.66;60.91;97888.63;8446638;28;20244;-75
2022/01/02 15:24:24;;;;;;;21.83;17.03;;;;;;;11.58;60.33;97883.00;8446644;28;20233;-76
2022/01/02 15:28:28;;;;;;;18.13;15.43;;;;;;;11.42;61.10;97886.31;8446533;28;20246;-76
2022/01/02 15:32:33;;;;;;;20.10;16.60;;;;;;;11.31;61.06;97896.41;8458252;28;20225;-76
2022/01/02 15:36:37;;;;;;;19.00;16.00;;;;;;;11.30;60.83;97898.13;8480007;28;20229;-75
2022/01/02 15:40:41;;;;;;;16.13;14.43;;;;;;;11.30;60.83;97892.13;8479418;28;20423;-76
2022/01/02 15:44:44;;;;;;;15.73;13.93;;;;;;;11.44;60.39;97886.25;8449621;28;20278;-76
2022/01/02 15:48:47;;;;;;;19.67;17.57;;;;;;;11.42;60.67;97896.69;8457953;28;20222;-76
2022/01/02 15:52:51;;;;;;;17.47;14.13;;;;;;;11.39;59.67;97896.03;8468109;28;20571;-76
2022/01/02 15:56:55;;;;;;;8.23;7.23;;;;;;;11.69;57.75;97896.25;8468140;28;20228;-75
2022/01/02 16:00:58;;;;;;;8.67;7.00;;;;;;;11.77;57.48;97899.31;8486293;28;20532;-76
2022/01/02 16:05:01;;;;;;;16.17;8.70;;;;;;;11.74;57.39;97915.03;8485296;28;20579;-75
2022/01/02 16:09:06;;;;;;;41.63;28.60;;;;;;;11.39;58.69;97924.53;8485610;28;20233;-76
2022/01/02 16:13:10;;;;;;;22.53;17.70;;;;;;;11.44;59.21;97926.00;8485203;28;20229;-76
2022/01/02 16:17:13;;;;;;;16.20;14.50;;;;;;;11.37;59.46;97929.81;8485219;28;20233;-76
2022/01/02 16:21:16;;;;;;;14.03;12.53;;;;;;;11.32;59.48;97931.75;8485526;28;20233;-76
2022/01/02 16:25:19;;;;;;;10.27;8.83;;;;;;;11.14;58.64;97946.44;8485420;28;20233;-76
2022/01/02 16:29:27;;;;;;;9.60;6.93;;;;;;;11.49;56.92;97938.72;8484909;28;20237;-75
2022/01/02 16:33:30;;;;;;;8.77;5.70;;;;;;;11.48;56.63;97940.50;8484865;28;20229;-75
2022/01/02 16:37:37;;;;;;;5.77;4.27;;;;;;;11.64;55.99;97940.56;8485166;28;20229;-76
2022/01/02 16:41:40;;;;;;;6.30;3.87;;;;;;;11.70;55.96;97942.88;8484804;28;20238;-75
2022/01/02 16:45:45;;;;;;;4.67;3.77;;;;;;;11.74;55.89;97940.97;8484610;28;20237;-75
2022/01/02 16:49:49;;;;;;;6.67;5.50;;;;;;;11.84;55.96;97938.75;8484770;28;20338;-75
2022/01/02 16:53:52;;;;;;;9.20;5.77;;;;;;;11.93;56.53;97940.91;8484362;28;20245;-77
2022/01/02 16:57:55;;;;;;;10.33;6.60;;;;;;;11.92;56.64;97932.31;8481110;28;20255;-75
2022/01/02 17:01:59;;;;;;;12.97;10.53;;;;;;;12.04;56.84;97936.03;8483111;28;20233;-76
2022/01/02 17:06:03;;;;;;;13.87;9.70;;;;;;;12.03;57.06;97943.88;8464427;28;20242;-76
2022/01/02 17:10:07;;;;;;;10.87;5.67;;;;;;;12.04;56.93;97945.56;8450191;28;20555;-76
2022/01/02 17:14:10;;;;;;;7.80;3.80;;;;;;;11.99;57.42;97944.97;8449310;28;20229;-76
2022/01/02 17:18:14;;;;;;;5.73;3.53;;;;;;;11.97;57.94;97942.44;8449915;28;20242;-76
2022/01/02 17:22:17;;;;;;;7.90;3.80;;;;;;;12.29;56.73;97940.78;8456497;28;20417;-66
2022/01/02 17:26:22;;;;;;;6.87;3.63;;;;;;;11.93;57.77;97953.91;8478847;28;20259;-65
2022/01/02 17:30:25;;;;;;;7.03;4.77;;;;;;;11.91;58.18;97966.94;8463052;28;20258;-65
2022/01/02 17:34:30;;;;;;;6.77;4.13;;;;;;;11.93;57.64;97964.28;8481172;28;20229;-64
2022/01/02 17:38:33;;;;;;;8.33;3.80;;;;;;;11.92;57.71;97966.03;8483222;28;20233;-65
2022/01/02 17:42:37;;;;;;;8.30;5.17;;;;;;;11.87;57.84;97969.75;8467812;28;20284;-64
2022/01/02 17:46:40;;;;;;;5.30;3.80;;;;;;;11.72;58.25;97963.56;8448872;28;20426;-65
2022/01/02 17:50:45;;;;;;;6.70;4.00;;;;;;;11.91;57.85;97963.50;8448383;28;20529;-65
2022/01/02 17:54:48;;;;;;;5.57;3.67;;;;;;;11.61;58.44;97969.25;8448420;28;20236;-65
2022/01/02 17:58:51;;;;;;;8.60;3.90;;;;;;;11.85;58.12;97969.81;8448345;28;20230;-65
2022/01/02 18:02:54;;;;;;;6.13;4.23;;;;;;;11.89;57.92;97980.88;8456470;28;20278;-65
2022/01/02 18:06:59;;;;;;;7.57;3.90;;;;;;;11.88;58.32;97969.66;8462334;28;20275;-66
2022/01/02 18:11:02;;;;;;;6.70;3.60;;;;;;;11.88;58.09;97971.41;8465521;28;20528;-65
2022/01/02 18:15:16;;;;;;;7.83;4.03;;;;;;;11.93;57.78;97965.09;8481348;28;20225;-65
2022/01/02 18:19:20;;;;;;;10.53;4.00;;;;;;;11.93;58.03;97972.88;8465440;28;20237;-66
2022/01/02 18:23:25;;;;;;;5.30;3.93;;;;;;;11.88;58.14;97966.22;8481169;28;20229;-65
2022/01/02 18:27:28;;;;;;;7.03;3.80;;;;;;;11.82;58.69;97949.22;8481301;28;20232;-65
2022/01/02 18:31:31;;;;;;;5.97;4.00;;;;;;;12.00;58.57;97947.50;8481105;28;20259;-65
2022/01/02 18:35:35;;;;;;;8.77;5.33;;;;;;;12.03;58.49;97946.47;8468712;28;20230;-65
2022/01/02 18:39:39;;;;;;;7.43;3.43;;;;;;;12.05;58.51;97955.03;8418159;28;20230;-65
2022/01/02 18:43:43;;;;;;;6.93;3.70;;;;;;;11.98;58.85;97962.31;8454991;28;20239;-63
2022/01/02 18:47:46;;;;;;;5.87;3.60;;;;;;;12.00;58.84;97947.50;8472748;28;20536;-65
2022/01/02 18:51:49;;;;;;;7.03;3.90;;;;;;;12.06;58.55;97941.97;8458671;28;20225;-64
2022/01/02 18:55:53;;;;;;;6.93;3.60;;;;;;;12.16;58.17;97931.97;8462489;28;20223;-64
2022/01/02 18:59:57;;;;;;;5.07;2.87;;;;;;;11.95;59.34;97923.50;8460724;28;20229;-65
2022/01/02 19:04:02;;;;;;;5.83;3.23;;;;;;;12.07;58.87;97927.22;8462977;28;20235;-65